sensor_id;sensor_type;location;lat;lon;timestamp;P1;durP1;ratioP1;P2;durP2;ratioP2
21215;SDS011;10765;50.954;5.322;2023-02-28T00:01:19;104.43;;;62.27;;
21215;SDS011;10765;50.954;5.322;2023-02-28T00:03:48;42.43;;;24.03;;
21215;SDS011;10765;50.954;5.322;2023-02-28T00:06:15;37.67;;;21.77;;
21215;SDS011;10765;50.954;5.322;2023-02-28T00:08:42;47.90;;;26.30;;
21215;SDS011;10765;50.954;5.322;2023-02-28T00:11:11;66.67;;;35.20;;
21215;SDS011;10765;50.954;5.322;2023-02-28T00:13:40;37.67;;;21.67;;
21215;SDS011;10765;50.954;5.322;2023-02-28T00:16:11;83.73;;;44.73;;
21215;SDS011;10765;50.954;5.322;2023-02-28T00:18:40;51.97;;;26.93;;
21215;SDS011;10765;50.954;5.322;2023-02-28T00:21:08;62.93;;;40.53;;
21215;SDS011;10765;50.954;5.322;2023-02-28T00:23:35;37.63;;;26.40;;
21215;SDS011;10765;50.954;5.322;2023-02-28T00:26:03;58.90;;;42.57;;
21215;SDS011;10765;50.954;5.322;2023-02-28T00:28:30;33.33;;;25.63;;
21215;SDS011;10765;50.954;5.322;2023-02-28T00:30:57;135.07;;;95.37;;
21215;SDS011;10765;50.954;5.322;2023-02-28T00:33:25;48.30;;;33.67;;
21215;SDS011;10765;50.954;5.322;2023-02-28T00:35:52;30.40;;;20.60;;
21215;SDS011;10765;50.954;5.322;2023-02-28T00:38:28;48.67;;;33.37;;
21215;SDS011;10765;50.954;5.322;2023-02-28T00:40:55;60.20;;;43.03;;
21215;SDS011;10765;50.954;5.322;2023-02-28T00:43:21;37.47;;;27.07;;
21215;SDS011;10765;50.954;5.322;2023-02-28T00:45:48;53.87;;;38.77;;
21215;SDS011;10765;50.954;5.322;2023-02-28T00:48:15;51.73;;;27.23;;
21215;SDS011;10765;50.954;5.322;2023-02-28T00:50:42;69.63;;;29.47;;
21215;SDS011;10765;50.954;5.322;2023-02-28T00:53:09;135.17;;;68.83;;
21215;SDS011;10765;50.954;5.322;2023-02-28T00:55:37;135.73;;;71.03;;
21215;SDS011;10765;50.954;5.322;2023-02-28T00:58:04;101.23;;;60.63;;
21215;SDS011;10765;50.954;5.322;2023-02-28T01:00:31;94.60;;;56.87;;
21215;SDS011;10765;50.954;5.322;2023-02-28T01:02:58;63.70;;;42.40;;
21215;SDS011;10765;50.954;5.322;2023-02-28T01:05:25;63.53;;;39.23;;
21215;SDS011;10765;50.954;5.322;2023-02-28T01:07:52;112.60;;;69.90;;
21215;SDS011;10765;50.954;5.322;2023-02-28T01:10:19;31.53;;;22.57;;
21215;SDS011;10765;50.954;5.322;2023-02-28T01:12:47;35.87;;;25.17;;
21215;SDS011;10765;50.954;5.322;2023-02-28T01:15:14;24.93;;;18.43;;
21215;SDS011;10765;50.954;5.322;2023-02-28T01:17:41;58.90;;;41.50;;
21215;SDS011;10765;50.954;5.322;2023-02-28T01:20:09;62.10;;;41.50;;
21215;SDS011;10765;50.954;5.322;2023-02-28T01:22:36;81.77;;;52.80;;
21215;SDS011;10765;50.954;5.322;2023-02-28T01:25:04;12.27;;;9.83;;
21215;SDS011;10765;50.954;5.322;2023-02-28T01:27:31;20.53;;;14.30;;
21215;SDS011;10765;50.954;5.322;2023-02-28T01:30:00;11.43;;;9.40;;
21215;SDS011;10765;50.954;5.322;2023-02-28T01:32:27;8.63;;;7.47;;
21215;SDS011;10765;50.954;5.322;2023-02-28T01:34:54;9.37;;;8.37;;
21215;SDS011;10765;50.954;5.322;2023-02-28T01:37:21;11.60;;;7.80;;
21215;SDS011;10765;50.954;5.322;2023-02-28T01:39:48;8.23;;;6.73;;
21215;SDS011;10765;50.954;5.322;2023-02-28T01:42:15;7.97;;;6.90;;
21215;SDS011;10765;50.954;5.322;2023-02-28T01:44:55;8.30;;;6.97;;
21215;SDS011;10765;50.954;5.322;2023-02-28T01:47:27;7.60;;;6.57;;
21215;SDS011;10765;50.954;5.322;2023-02-28T01:49:58;8.63;;;6.87;;
21215;SDS011;10765;50.954;5.322;2023-02-28T01:52:27;9.53;;;7.97;;
21215;SDS011;10765;50.954;5.322;2023-02-28T01:54:55;10.37;;;7.57;;
21215;SDS011;10765;50.954;5.322;2023-02-28T01:57:24;8.97;;;6.23;;
21215;SDS011;10765;50.954;5.322;2023-02-28T01:59:57;6.80;;;6.13;;
21215;SDS011;10765;50.954;5.322;2023-02-28T02:02:29;7.77;;;6.20;;
21215;SDS011;10765;50.954;5.322;2023-02-28T02:04:58;9.70;;;7.20;;
21215;SDS011;10765;50.954;5.322;2023-02-28T02:07:29;9.20;;;8.20;;
21215;SDS011;10765;50.954;5.322;2023-02-28T02:09:59;9.10;;;7.17;;
21215;SDS011;10765;50.954;5.322;2023-02-28T02:12:32;9.23;;;7.53;;
21215;SDS011;10765;50.954;5.322;2023-02-28T02:15:14;10.87;;;8.10;;
21215;SDS011;10765;50.954;5.322;2023-02-28T02:17:48;8.40;;;7.40;;
21215;SDS011;10765;50.954;5.322;2023-02-28T02:26:43;9.27;;;7.00;;
21215;SDS011;10765;50.954;5.322;2023-02-28T02:29:40;10.10;;;7.40;;
21215;SDS011;10765;50.954;5.322;2023-02-28T02:35:54;9.30;;;7.60;;
21215;SDS011;10765;50.954;5.322;2023-02-28T02:38:29;7.70;;;6.60;;
21215;SDS011;10765;50.954;5.322;2023-02-28T02:41:04;10.70;;;7.40;;
21215;SDS011;10765;50.954;5.322;2023-02-28T02:43:35;8.53;;;6.90;;
21215;SDS011;10765;50.954;5.322;2023-02-28T02:46:08;9.27;;;7.80;;
21215;SDS011;10765;50.954;5.322;2023-02-28T02:48:39;11.80;;;7.57;;
21215;SDS011;10765;50.954;5.322;2023-02-28T02:51:10;11.90;;;7.57;;
21215;SDS011;10765;50.954;5.322;2023-02-28T02:53:41;7.90;;;7.10;;
21215;SDS011;10765;50.954;5.322;2023-02-28T02:56:11;9.73;;;7.37;;
21215;SDS011;10765;50.954;5.322;2023-02-28T02:58:41;8.10;;;6.73;;
21215;SDS011;10765;50.954;5.322;2023-02-28T03:01:10;8.40;;;7.50;;
21215;SDS011;10765;50.954;5.322;2023-02-28T03:03:41;9.83;;;7.80;;
21215;SDS011;10765;50.954;5.322;2023-02-28T03:06:08;10.73;;;7.40;;
21215;SDS011;10765;50.954;5.322;2023-02-28T03:08:37;8.47;;;6.60;;
21215;SDS011;10765;50.954;5.322;2023-02-28T03:11:05;9.50;;;7.73;;
21215;SDS011;10765;50.954;5.322;2023-02-28T03:13:49;7.80;;;7.10;;
21215;SDS011;10765;50.954;5.322;2023-02-28T03:19:24;8.33;;;7.37;;
21215;SDS011;10765;50.954;5.322;2023-02-28T03:22:03;11.73;;;8.00;;
21215;SDS011;10765;50.954;5.322;2023-02-28T03:24:43;13.23;;;7.30;;
21215;SDS011;10765;50.954;5.322;2023-02-28T03:27:16;10.47;;;7.93;;
21215;SDS011;10765;50.954;5.322;2023-02-28T03:29:49;10.17;;;8.23;;
21215;SDS011;10765;50.954;5.322;2023-02-28T03:32:23;9.73;;;7.93;;
21215;SDS011;10765;50.954;5.322;2023-02-28T03:34:54;10.33;;;8.27;;
21215;SDS011;10765;50.954;5.322;2023-02-28T03:37:25;11.37;;;8.00;;
21215;SDS011;10765;50.954;5.322;2023-02-28T03:39:57;9.97;;;8.27;;
21215;SDS011;10765;50.954;5.322;2023-02-28T03:42:31;9.33;;;7.57;;
21215;SDS011;10765;50.954;5.322;2023-02-28T03:45:02;8.73;;;7.87;;
21215;SDS011;10765;50.954;5.322;2023-02-28T03:47:35;9.70;;;7.83;;
21215;SDS011;10765;50.954;5.322;2023-02-28T03:50:06;9.40;;;8.07;;
21215;SDS011;10765;50.954;5.322;2023-02-28T03:52:38;8.90;;;7.77;;
21215;SDS011;10765;50.954;5.322;2023-02-28T03:55:11;8.97;;;7.90;;
21215;SDS011;10765;50.954;5.322;2023-02-28T03:57:43;10.10;;;7.67;;
21215;SDS011;10765;50.954;5.322;2023-02-28T04:00:17;8.23;;;7.40;;
21215;SDS011;10765;50.954;5.322;2023-02-28T04:02:47;8.43;;;7.57;;
21215;SDS011;10765;50.954;5.322;2023-02-28T04:05:18;10.50;;;8.60;;
21215;SDS011;10765;50.954;5.322;2023-02-28T04:07:45;10.07;;;8.13;;
21215;SDS011;10765;50.954;5.322;2023-02-28T04:10:13;9.83;;;7.90;;
21215;SDS011;10765;50.954;5.322;2023-02-28T04:12:41;9.27;;;8.23;;
21215;SDS011;10765;50.954;5.322;2023-02-28T04:15:08;9.83;;;8.40;;
21215;SDS011;10765;50.954;5.322;2023-02-28T04:17:36;10.37;;;8.40;;
21215;SDS011;10765;50.954;5.322;2023-02-28T04:20:03;10.37;;;8.07;;
21215;SDS011;10765;50.954;5.322;2023-02-28T04:22:34;10.07;;;8.40;;
21215;SDS011;10765;50.954;5.322;2023-02-28T04:25:01;9.40;;;8.50;;
21215;SDS011;10765;50.954;5.322;2023-02-28T04:27:30;9.03;;;7.90;;
21215;SDS011;10765;50.954;5.322;2023-02-28T04:29:57;11.13;;;8.70;;
21215;SDS011;10765;50.954;5.322;2023-02-28T04:32:24;11.73;;;8.33;;
21215;SDS011;10765;50.954;5.322;2023-02-28T04:34:51;9.83;;;8.10;;
21215;SDS011;10765;50.954;5.322;2023-02-28T04:37:17;10.30;;;9.20;;
21215;SDS011;10765;50.954;5.322;2023-02-28T04:39:44;8.63;;;7.80;;
21215;SDS011;10765;50.954;5.322;2023-02-28T04:42:11;11.03;;;8.23;;
21215;SDS011;10765;50.954;5.322;2023-02-28T04:44:40;10.83;;;8.67;;
21215;SDS011;10765;50.954;5.322;2023-02-28T04:47:07;9.80;;;8.80;;
21215;SDS011;10765;50.954;5.322;2023-02-28T04:49:34;10.37;;;8.37;;
21215;SDS011;10765;50.954;5.322;2023-02-28T04:52:01;10.73;;;8.20;;
21215;SDS011;10765;50.954;5.322;2023-02-28T04:54:28;10.37;;;9.00;;
21215;SDS011;10765;50.954;5.322;2023-02-28T04:56:55;9.20;;;8.30;;
21215;SDS011;10765;50.954;5.322;2023-02-28T04:59:22;11.37;;;9.10;;
21215;SDS011;10765;50.954;5.322;2023-02-28T05:01:50;9.37;;;8.47;;
21215;SDS011;10765;50.954;5.322;2023-02-28T05:04:17;11.20;;;8.70;;
21215;SDS011;10765;50.954;5.322;2023-02-28T05:06:44;11.37;;;8.53;;
21215;SDS011;10765;50.954;5.322;2023-02-28T05:09:11;10.00;;;8.93;;
21215;SDS011;10765;50.954;5.322;2023-02-28T05:11:38;12.07;;;9.07;;
21215;SDS011;10765;50.954;5.322;2023-02-28T05:14:07;10.33;;;8.57;;
21215;SDS011;10765;50.954;5.322;2023-02-28T05:16:37;10.87;;;9.37;;
21215;SDS011;10765;50.954;5.322;2023-02-28T05:19:05;9.97;;;8.93;;
21215;SDS011;10765;50.954;5.322;2023-02-28T05:21:33;12.03;;;9.77;;
21215;SDS011;10765;50.954;5.322;2023-02-28T05:24:02;12.47;;;9.13;;
21215;SDS011;10765;50.954;5.322;2023-02-28T05:26:31;13.80;;;9.37;;
21215;SDS011;10765;50.954;5.322;2023-02-28T05:29:01;12.47;;;9.60;;
21215;SDS011;10765;50.954;5.322;2023-02-28T05:31:28;10.33;;;8.77;;
21215;SDS011;10765;50.954;5.322;2023-02-28T05:33:55;9.97;;;8.63;;
21215;SDS011;10765;50.954;5.322;2023-02-28T05:36:23;10.53;;;9.43;;
21215;SDS011;10765;50.954;5.322;2023-02-28T05:38:50;11.43;;;9.60;;
21215;SDS011;10765;50.954;5.322;2023-02-28T05:41:18;11.70;;;10.47;;
21215;SDS011;10765;50.954;5.322;2023-02-28T05:43:46;15.13;;;10.90;;
21215;SDS011;10765;50.954;5.322;2023-02-28T05:46:13;13.80;;;10.30;;
21215;SDS011;10765;50.954;5.322;2023-02-28T05:48:40;12.03;;;9.67;;
21215;SDS011;10765;50.954;5.322;2023-02-28T05:51:08;14.03;;;10.93;;
21215;SDS011;10765;50.954;5.322;2023-02-28T05:53:37;13.73;;;11.20;;
21215;SDS011;10765;50.954;5.322;2023-02-28T05:56:04;14.17;;;10.77;;
21215;SDS011;10765;50.954;5.322;2023-02-28T05:58:31;14.07;;;10.57;;
21215;SDS011;10765;50.954;5.322;2023-02-28T06:01:00;13.27;;;10.20;;
21215;SDS011;10765;50.954;5.322;2023-02-28T06:03:44;19.77;;;13.97;;
21215;SDS011;10765;50.954;5.322;2023-02-28T06:06:11;23.27;;;17.20;;
21215;SDS011;10765;50.954;5.322;2023-02-28T06:08:39;21.03;;;15.93;;
21215;SDS011;10765;50.954;5.322;2023-02-28T06:11:08;77.57;;;47.00;;
21215;SDS011;10765;50.954;5.322;2023-02-28T06:13:35;34.07;;;24.23;;
21215;SDS011;10765;50.954;5.322;2023-02-28T06:16:02;31.17;;;20.63;;
21215;SDS011;10765;50.954;5.322;2023-02-28T06:18:29;37.43;;;27.07;;
21215;SDS011;10765;50.954;5.322;2023-02-28T06:20:57;17.07;;;12.07;;
21215;SDS011;10765;50.954;5.322;2023-02-28T06:23:24;14.43;;;11.27;;
21215;SDS011;10765;50.954;5.322;2023-02-28T06:25:52;12.40;;;10.33;;
21215;SDS011;10765;50.954;5.322;2023-02-28T06:28:22;14.63;;;11.37;;
21215;SDS011;10765;50.954;5.322;2023-02-28T06:30:49;14.47;;;11.57;;
21215;SDS011;10765;50.954;5.322;2023-02-28T06:33:16;13.53;;;10.30;;
21215;SDS011;10765;50.954;5.322;2023-02-28T06:35:43;13.57;;;10.77;;
21215;SDS011;10765;50.954;5.322;2023-02-28T06:38:10;12.90;;;10.60;;
21215;SDS011;10765;50.954;5.322;2023-02-28T06:40:37;12.83;;;10.23;;
21215;SDS011;10765;50.954;5.322;2023-02-28T06:43:05;12.90;;;10.80;;
21215;SDS011;10765;50.954;5.322;2023-02-28T06:45:33;18.20;;;11.37;;
21215;SDS011;10765;50.954;5.322;2023-02-28T06:48:00;13.20;;;10.47;;
21215;SDS011;10765;50.954;5.322;2023-02-28T06:50:26;13.90;;;11.10;;
21215;SDS011;10765;50.954;5.322;2023-02-28T06:52:54;13.40;;;9.50;;
21215;SDS011;10765;50.954;5.322;2023-02-28T06:55:21;10.20;;;9.17;;
21215;SDS011;10765;50.954;5.322;2023-02-28T06:57:48;13.13;;;9.00;;
21215;SDS011;10765;50.954;5.322;2023-02-28T07:00:17;9.17;;;7.70;;
21215;SDS011;10765;50.954;5.322;2023-02-28T07:02:45;14.03;;;8.60;;
21215;SDS011;10765;50.954;5.322;2023-02-28T07:05:12;9.63;;;6.93;;
21215;SDS011;10765;50.954;5.322;2023-02-28T07:07:39;8.93;;;6.47;;
21215;SDS011;10765;50.954;5.322;2023-02-28T07:10:09;9.83;;;7.30;;
21215;SDS011;10765;50.954;5.322;2023-02-28T07:12:38;10.20;;;9.10;;
21215;SDS011;10765;50.954;5.322;2023-02-28T07:15:05;17.73;;;13.77;;
21215;SDS011;10765;50.954;5.322;2023-02-28T07:17:34;23.53;;;16.23;;
21215;SDS011;10765;50.954;5.322;2023-02-28T07:20:01;34.37;;;22.73;;
21215;SDS011;10765;50.954;5.322;2023-02-28T07:22:29;45.70;;;32.03;;
21215;SDS011;10765;50.954;5.322;2023-02-28T07:24:56;23.97;;;18.40;;
21215;SDS011;10765;50.954;5.322;2023-02-28T07:27:23;13.73;;;10.70;;
21215;SDS011;10765;50.954;5.322;2023-02-28T07:29:50;20.97;;;16.83;;
21215;SDS011;10765;50.954;5.322;2023-02-28T07:32:18;11.57;;;7.33;;
21215;SDS011;10765;50.954;5.322;2023-02-28T07:34:46;14.00;;;9.83;;
21215;SDS011;10765;50.954;5.322;2023-02-28T07:37:13;17.13;;;13.50;;
21215;SDS011;10765;50.954;5.322;2023-02-28T07:39:40;12.87;;;10.60;;
21215;SDS011;10765;50.954;5.322;2023-02-28T07:42:08;28.30;;;25.20;;
21215;SDS011;10765;50.954;5.322;2023-02-28T07:44:37;11.20;;;9.87;;
21215;SDS011;10765;50.954;5.322;2023-02-28T07:47:06;7.93;;;7.13;;
21215;SDS011;10765;50.954;5.322;2023-02-28T07:49:34;12.73;;;11.43;;
21215;SDS011;10765;50.954;5.322;2023-02-28T07:52:02;12.20;;;10.37;;
21215;SDS011;10765;50.954;5.322;2023-02-28T07:54:30;8.07;;;7.27;;
21215;SDS011;10765;50.954;5.322;2023-02-28T07:56:57;11.10;;;9.37;;
21215;SDS011;10765;50.954;5.322;2023-02-28T07:59:24;17.20;;;15.40;;
21215;SDS011;10765;50.954;5.322;2023-02-28T08:01:51;14.37;;;11.80;;
21215;SDS011;10765;50.954;5.322;2023-02-28T08:04:18;11.80;;;10.50;;
21215;SDS011;10765;50.954;5.322;2023-02-28T08:06:45;11.43;;;9.87;;
21215;SDS011;10765;50.954;5.322;2023-02-28T08:09:14;9.33;;;7.27;;
21215;SDS011;10765;50.954;5.322;2023-02-28T08:11:40;7.30;;;6.60;;
21215;SDS011;10765;50.954;5.322;2023-02-28T08:14:07;7.00;;;6.13;;
21215;SDS011;10765;50.954;5.322;2023-02-28T08:16:34;24.13;;;12.30;;
21215;SDS011;10765;50.954;5.322;2023-02-28T08:19:02;6.60;;;5.60;;
21215;SDS011;10765;50.954;5.322;2023-02-28T08:21:29;5.30;;;4.80;;
21215;SDS011;10765;50.954;5.322;2023-02-28T08:23:56;7.40;;;6.57;;
21215;SDS011;10765;50.954;5.322;2023-02-28T08:26:24;6.70;;;6.00;;
21215;SDS011;10765;50.954;5.322;2023-02-28T08:28:51;9.17;;;8.17;;
21215;SDS011;10765;50.954;5.322;2023-02-28T08:31:18;4.63;;;4.03;;
21215;SDS011;10765;50.954;5.322;2023-02-28T08:33:45;9.63;;;8.37;;
21215;SDS011;10765;50.954;5.322;2023-02-28T08:36:13;9.70;;;7.73;;
21215;SDS011;10765;50.954;5.322;2023-02-28T08:38:41;7.20;;;6.50;;
21215;SDS011;10765;50.954;5.322;2023-02-28T08:41:09;8.17;;;5.73;;
21215;SDS011;10765;50.954;5.322;2023-02-28T08:43:39;8.63;;;7.83;;
21215;SDS011;10765;50.954;5.322;2023-02-28T08:46:06;7.07;;;6.30;;
21215;SDS011;10765;50.954;5.322;2023-02-28T08:48:35;5.60;;;4.13;;
21215;SDS011;10765;50.954;5.322;2023-02-28T08:51:04;9.10;;;7.77;;
21215;SDS011;10765;50.954;5.322;2023-02-28T08:53:34;8.20;;;6.97;;
21215;SDS011;10765;50.954;5.322;2023-02-28T08:56:02;3.80;;;3.50;;
21215;SDS011;10765;50.954;5.322;2023-02-28T08:58:31;5.03;;;3.80;;
21215;SDS011;10765;50.954;5.322;2023-02-28T09:01:00;15.70;;;5.40;;
21215;SDS011;10765;50.954;5.322;2023-02-28T09:03:34;3.50;;;3.20;;
21215;SDS011;10765;50.954;5.322;2023-02-28T09:06:01;7.53;;;5.07;;
21215;SDS011;10765;50.954;5.322;2023-02-28T09:08:29;10.57;;;7.90;;
21215;SDS011;10765;50.954;5.322;2023-02-28T09:10:57;8.50;;;3.97;;
21215;SDS011;10765;50.954;5.322;2023-02-28T09:13:24;5.17;;;3.73;;
21215;SDS011;10765;50.954;5.322;2023-02-28T09:15:52;7.00;;;3.67;;
21215;SDS011;10765;50.954;5.322;2023-02-28T09:18:21;4.03;;;3.33;;
21215;SDS011;10765;50.954;5.322;2023-02-28T09:20:47;3.20;;;2.90;;
21215;SDS011;10765;50.954;5.322;2023-02-28T09:23:15;5.33;;;3.00;;
21215;SDS011;10765;50.954;5.322;2023-02-28T09:25:45;5.37;;;2.83;;
21215;SDS011;10765;50.954;5.322;2023-02-28T09:28:14;5.97;;;3.40;;
21215;SDS011;10765;50.954;5.322;2023-02-28T09:30:42;6.93;;;2.70;;
21215;SDS011;10765;50.954;5.322;2023-02-28T09:33:10;2.33;;;2.03;;
21215;SDS011;10765;50.954;5.322;2023-02-28T09:35:39;2.27;;;2.07;;
21215;SDS011;10765;50.954;5.322;2023-02-28T09:38:08;4.67;;;2.80;;
21215;SDS011;10765;50.954;5.322;2023-02-28T09:40:36;5.63;;;2.20;;
21215;SDS011;10765;50.954;5.322;2023-02-28T09:43:05;6.77;;;5.57;;
21215;SDS011;10765;50.954;5.322;2023-02-28T09:45:37;3.10;;;2.03;;
21215;SDS011;10765;50.954;5.322;2023-02-28T09:48:16;7.50;;;3.23;;
21215;SDS011;10765;50.954;5.322;2023-02-28T09:50:49;3.27;;;2.83;;
21215;SDS011;10765;50.954;5.322;2023-02-28T09:53:19;1.70;;;1.60;;
21215;SDS011;10765;50.954;5.322;2023-02-28T09:55:52;2.67;;;1.83;;
21215;SDS011;10765;50.954;5.322;2023-02-28T09:58:26;2.10;;;1.70;;
21215;SDS011;10765;50.954;5.322;2023-02-28T10:00:58;2.07;;;1.83;;
21215;SDS011;10765;50.954;5.322;2023-02-28T10:03:30;2.10;;;1.87;;
21215;SDS011;10765;50.954;5.322;2023-02-28T10:06:04;1.93;;;1.73;;
21215;SDS011;10765;50.954;5.322;2023-02-28T10:08:37;19.07;;;14.97;;
21215;SDS011;10765;50.954;5.322;2023-02-28T10:11:12;2.60;;;1.80;;
21215;SDS011;10765;50.954;5.322;2023-02-28T10:13:46;2.40;;;1.70;;
21215;SDS011;10765;50.954;5.322;2023-02-28T10:16:20;2.33;;;1.87;;
21215;SDS011;10765;50.954;5.322;2023-02-28T10:18:50;2.17;;;1.70;;
21215;SDS011;10765;50.954;5.322;2023-02-28T10:21:23;3.97;;;2.10;;
21215;SDS011;10765;50.954;5.322;2023-02-28T10:23:56;1.70;;;1.60;;
21215;SDS011;10765;50.954;5.322;2023-02-28T10:26:28;2.17;;;1.97;;
21215;SDS011;10765;50.954;5.322;2023-02-28T10:28:57;1.70;;;1.60;;
21215;SDS011;10765;50.954;5.322;2023-02-28T10:31:24;2.40;;;1.70;;
21215;SDS011;10765;50.954;5.322;2023-02-28T10:33:51;1.90;;;1.63;;
21215;SDS011;10765;50.954;5.322;2023-02-28T10:36:19;1.97;;;1.33;;
21215;SDS011;10765;50.954;5.322;2023-02-28T10:38:48;3.17;;;1.70;;
21215;SDS011;10765;50.954;5.322;2023-02-28T10:41:17;1.90;;;1.70;;
21215;SDS011;10765;50.954;5.322;2023-02-28T10:44:08;3.43;;;1.50;;
21215;SDS011;10765;50.954;5.322;2023-02-28T10:46:40;1.70;;;1.60;;
21215;SDS011;10765;50.954;5.322;2023-02-28T10:49:12;3.33;;;1.70;;
21215;SDS011;10765;50.954;5.322;2023-02-28T10:51:41;2.30;;;1.60;;
21215;SDS011;10765;50.954;5.322;2023-02-28T10:54:16;2.23;;;1.63;;
21215;SDS011;10765;50.954;5.322;2023-02-28T10:56:45;1.70;;;1.60;;
21215;SDS011;10765;50.954;5.322;2023-02-28T10:59:31;8.27;;;5.67;;
21215;SDS011;10765;50.954;5.322;2023-02-28T11:01:59;7.43;;;4.23;;
21215;SDS011;10765;50.954;5.322;2023-02-28T11:04:32;13.67;;;8.03;;
21215;SDS011;10765;50.954;5.322;2023-02-28T11:07:03;2.00;;;1.53;;
21215;SDS011;10765;50.954;5.322;2023-02-28T11:09:34;2.67;;;1.67;;
21215;SDS011;10765;50.954;5.322;2023-02-28T11:12:04;5.03;;;3.33;;
21215;SDS011;10765;50.954;5.322;2023-02-28T11:14:35;1.93;;;1.67;;
21215;SDS011;10765;50.954;5.322;2023-02-28T11:17:11;1.50;;;1.40;;
21215;SDS011;10765;50.954;5.322;2023-02-28T11:19:44;1.60;;;1.47;;
21215;SDS011;10765;50.954;5.322;2023-02-28T11:22:16;4.97;;;3.33;;
21215;SDS011;10765;50.954;5.322;2023-02-28T11:24:48;8.03;;;3.93;;
21215;SDS011;10765;50.954;5.322;2023-02-28T11:27:24;1.87;;;1.70;;
21215;SDS011;10765;50.954;5.322;2023-02-28T11:30:13;20.23;;;11.43;;
21215;SDS011;10765;50.954;5.322;2023-02-28T11:32:53;41.37;;;19.53;;
21215;SDS011;10765;50.954;5.322;2023-02-28T11:35:23;7.30;;;3.80;;
21215;SDS011;10765;50.954;5.322;2023-02-28T11:37:53;13.23;;;5.33;;
21215;SDS011;10765;50.954;5.322;2023-02-28T11:40:23;54.27;;;26.70;;
21215;SDS011;10765;50.954;5.322;2023-02-28T11:43:05;3.43;;;2.10;;
21215;SDS011;10765;50.954;5.322;2023-02-28T11:45:42;22.40;;;18.17;;
21215;SDS011;10765;50.954;5.322;2023-02-28T11:48:16;4.73;;;3.90;;
21215;SDS011;10765;50.954;5.322;2023-02-28T11:50:49;2.00;;;1.90;;
21215;SDS011;10765;50.954;5.322;2023-02-28T11:53:23;2.80;;;2.00;;
21215;SDS011;10765;50.954;5.322;2023-02-28T11:56:03;1.83;;;1.73;;
21215;SDS011;10765;50.954;5.322;2023-02-28T11:58:42;2.20;;;1.97;;
21215;SDS011;10765;50.954;5.322;2023-02-28T12:01:23;4.07;;;1.87;;
21215;SDS011;10765;50.954;5.322;2023-02-28T12:04:11;3.00;;;2.00;;
21215;SDS011;10765;50.954;5.322;2023-02-28T12:06:50;3.43;;;1.93;;
21215;SDS011;10765;50.954;5.322;2023-02-28T12:09:32;1.90;;;1.80;;
21215;SDS011;10765;50.954;5.322;2023-02-28T12:12:10;3.47;;;1.90;;
21215;SDS011;10765;50.954;5.322;2023-02-28T12:14:55;1.70;;;1.60;;
21215;SDS011;10765;50.954;5.322;2023-02-28T12:17:46;1.73;;;1.60;;
21215;SDS011;10765;50.954;5.322;2023-02-28T12:20:26;3.63;;;1.70;;
21215;SDS011;10765;50.954;5.322;2023-02-28T12:23:15;3.43;;;1.77;;
21215;SDS011;10765;50.954;5.322;2023-02-28T12:25:52;6.10;;;3.20;;
21215;SDS011;10765;50.954;5.322;2023-02-28T12:28:29;2.67;;;1.70;;
21215;SDS011;10765;50.954;5.322;2023-02-28T12:31:00;8.03;;;1.60;;
21215;SDS011;10765;50.954;5.322;2023-02-28T12:33:32;2.80;;;2.00;;
21215;SDS011;10765;50.954;5.322;2023-02-28T12:36:03;7.70;;;5.23;;
21215;SDS011;10765;50.954;5.322;2023-02-28T12:38:38;2.73;;;2.17;;
21215;SDS011;10765;50.954;5.322;2023-02-28T12:41:10;2.23;;;1.87;;
21215;SDS011;10765;50.954;5.322;2023-02-28T12:43:42;5.03;;;1.83;;
21215;SDS011;10765;50.954;5.322;2023-02-28T12:46:12;3.83;;;2.47;;
21215;SDS011;10765;50.954;5.322;2023-02-28T12:48:45;3.50;;;2.90;;
21215;SDS011;10765;50.954;5.322;2023-02-28T12:51:14;5.20;;;2.40;;
21215;SDS011;10765;50.954;5.322;2023-02-28T12:53:49;3.83;;;2.57;;
21215;SDS011;10765;50.954;5.322;2023-02-28T12:56:27;2.70;;;2.20;;
21215;SDS011;10765;50.954;5.322;2023-02-28T12:59:05;4.57;;;2.10;;
21215;SDS011;10765;50.954;5.322;2023-02-28T13:01:42;2.00;;;1.90;;
21215;SDS011;10765;50.954;5.322;2023-02-28T13:04:32;3.07;;;2.20;;
21215;SDS011;10765;50.954;5.322;2023-02-28T13:07:31;3.50;;;1.80;;
21215;SDS011;10765;50.954;5.322;2023-02-28T13:10:14;4.13;;;2.17;;
21215;SDS011;10765;50.954;5.322;2023-02-28T13:12:47;2.70;;;2.50;;
21215;SDS011;10765;50.954;5.322;2023-02-28T13:15:18;2.80;;;2.13;;
21215;SDS011;10765;50.954;5.322;2023-02-28T13:17:49;2.30;;;2.10;;
21215;SDS011;10765;50.954;5.322;2023-02-28T13:20:18;3.07;;;2.23;;
21215;SDS011;10765;50.954;5.322;2023-02-28T13:22:47;2.93;;;2.40;;
21215;SDS011;10765;50.954;5.322;2023-02-28T13:31:27;2.40;;;2.20;;
21215;SDS011;10765;50.954;5.322;2023-02-28T13:34:14;2.23;;;2.10;;
21215;SDS011;10765;50.954;5.322;2023-02-28T13:36:42;2.63;;;2.20;;
21215;SDS011;10765;50.954;5.322;2023-02-28T13:42:30;2.63;;;2.43;;
21215;SDS011;10765;50.954;5.322;2023-02-28T13:45:19;4.23;;;2.20;;
21215;SDS011;10765;50.954;5.322;2023-02-28T13:47:52;2.53;;;2.10;;
21215;SDS011;10765;50.954;5.322;2023-02-28T13:50:29;3.10;;;2.80;;
21215;SDS011;10765;50.954;5.322;2023-02-28T13:56:27;2.90;;;2.30;;
21215;SDS011;10765;50.954;5.322;2023-02-28T13:59:06;3.00;;;2.40;;
21215;SDS011;10765;50.954;5.322;2023-02-28T14:01:49;2.50;;;2.30;;
21215;SDS011;10765;50.954;5.322;2023-02-28T14:04:38;3.00;;;2.30;;
21215;SDS011;10765;50.954;5.322;2023-02-28T14:07:26;3.10;;;2.33;;
21215;SDS011;10765;50.954;5.322;2023-02-28T14:09:59;2.57;;;2.37;;
21215;SDS011;10765;50.954;5.322;2023-02-28T14:18:26;3.10;;;2.80;;
21215;SDS011;10765;50.954;5.322;2023-02-28T14:20:59;3.07;;;2.50;;
21215;SDS011;10765;50.954;5.322;2023-02-28T14:23:41;2.77;;;2.57;;
21215;SDS011;10765;50.954;5.322;2023-02-28T14:26:19;3.57;;;2.60;;
21215;SDS011;10765;50.954;5.322;2023-02-28T14:29:02;3.80;;;2.63;;
21215;SDS011;10765;50.954;5.322;2023-02-28T14:31:43;2.60;;;2.40;;
21215;SDS011;10765;50.954;5.322;2023-02-28T14:34:20;3.10;;;2.60;;
21215;SDS011;10765;50.954;5.322;2023-02-28T14:36:57;7.57;;;4.57;;
21215;SDS011;10765;50.954;5.322;2023-02-28T14:39:26;3.30;;;2.40;;
21215;SDS011;10765;50.954;5.322;2023-02-28T14:41:56;3.60;;;2.50;;
21215;SDS011;10765;50.954;5.322;2023-02-28T14:44:28;2.90;;;2.60;;
21215;SDS011;10765;50.954;5.322;2023-02-28T14:46:55;5.70;;;4.03;;
21215;SDS011;10765;50.954;5.322;2023-02-28T14:49:29;11.80;;;7.03;;
21215;SDS011;10765;50.954;5.322;2023-02-28T14:52:03;2.73;;;2.40;;
21215;SDS011;10765;50.954;5.322;2023-02-28T14:54:34;4.27;;;2.47;;
21215;SDS011;10765;50.954;5.322;2023-02-28T14:57:02;2.30;;;2.10;;
21215;SDS011;10765;50.954;5.322;2023-02-28T14:59:31;14.37;;;9.27;;
21215;SDS011;10765;50.954;5.322;2023-02-28T15:02:19;6.13;;;4.97;;
21215;SDS011;10765;50.954;5.322;2023-02-28T15:04:54;2.53;;;2.20;;
21215;SDS011;10765;50.954;5.322;2023-02-28T15:07:23;3.47;;;2.40;;
21215;SDS011;10765;50.954;5.322;2023-02-28T15:10:10;2.47;;;2.20;;
21215;SDS011;10765;50.954;5.322;2023-02-28T15:12:44;3.30;;;2.60;;
21215;SDS011;10765;50.954;5.322;2023-02-28T15:15:15;2.67;;;2.47;;
21215;SDS011;10765;50.954;5.322;2023-02-28T15:17:44;2.60;;;2.40;;
21215;SDS011;10765;50.954;5.322;2023-02-28T15:20:15;3.20;;;2.27;;
21215;SDS011;10765;50.954;5.322;2023-02-28T15:22:46;2.70;;;2.40;;
21215;SDS011;10765;50.954;5.322;2023-02-28T15:25:17;3.03;;;2.20;;
21215;SDS011;10765;50.954;5.322;2023-02-28T15:27:47;4.90;;;2.47;;
21215;SDS011;10765;50.954;5.322;2023-02-28T15:30:17;2.60;;;2.40;;
21215;SDS011;10765;50.954;5.322;2023-02-28T15:33:01;4.20;;;2.47;;